Time;durP1;ratioP1;P1;durP2;ratioP2;P2;SDS_P1;SDS_P2;PMS_P1;PMS_P2;Temp;Humidity;BMP_temperature;BMP_pressure;BME280_temperature;BME280_humidity;BME280_pressure;Samples;Min_cycle;Max_cycle;Signal;HPM_P1;HPM_P2
2024/03/01 00:01:59;;;;;;;;;;;;;;;8.57;74.29;99993.92;109473;1252;71451;-68
2024/03/01 00:04:26;;;;;;;;;;;;;;;8.64;73.87;99991.73;109573;1253;61033;-69
2024/03/01 00:06:54;;;;;;;;;;;;;;;8.62;73.77;99986.48;109510;1252;59849;-69
2024/03/01 00:09:21;;;;;;;;;;;;;;;8.65;73.61;99989.29;109519;1252;73448;-69
2024/03/01 00:11:49;;;;;;;;;;;;;;;8.70;73.44;99990.98;109511;1253;67528;-69
2024/03/01 00:14:16;;;;;;;;;;;;;;;8.70;73.68;99998.35;109296;1252;72886;-69
2024/03/01 00:16:44;;;;;;;;;;;;;;;8.75;73.14;100001.05;109212;1253;59660;-69
2024/03/01 00:19:11;;;;;;;;;;;;;;;8.73;73.11;99991.80;109623;1252;59857;-69
2024/03/01 00:21:39;;;;;;;;;;;;;;;8.57;73.76;99986.91;109668;1253;73443;-69
2024/03/01 00:24:07;;;;;;;;;;;;;;;8.47;74.26;99979.23;109537;1253;67265;-71
2024/03/01 00:26:35;;;;;;;;;;;;;;;8.42;74.73;99980.41;109546;1253;72783;-67
2024/03/01 00:29:03;;;;;;;;;;;;;;;8.54;74.04;99979.71;109565;1253;60956;-69
2024/03/01 00:31:30;;;;;;;;;;;;;;;8.55;73.86;99972.69;109529;1252;58927;-69
2024/03/01 00:33:58;;;;;;;;;;;;;;;8.53;73.92;99973.29;109520;1252;73735;-69
2024/03/01 00:36:25;;;;;;;;;;;;;;;8.56;73.75;99972.59;109506;1253;68533;-69
2024/03/01 00:38:53;;;;;;;;;;;;;;;8.38;74.76;99969.88;109506;1252;71645;-68
2024/03/01 00:41:20;;;;;;;;;;;;;;;8.40;74.83;99964.20;109493;1253;60942;-68
2024/03/01 00:43:48;;;;;;;;;;;;;;;8.53;74.33;99958.98;109511;1253;60211;-68
2024/03/01 00:46:16;;;;;;;;;;;;;;;8.55;74.17;99956.58;109568;1253;74771;-68
2024/03/01 00:48:43;;;;;;;;;;;;;;;8.58;73.74;99952.27;109509;1253;67570;-69
2024/03/01 00:51:11;;;;;;;;;;;;;;;8.62;73.21;99952.36;109529;1252;72713;-68
2024/03/01 00:53:38;;;;;;;;;;;;;;;8.58;73.03;99942.47;109317;1256;59960;-67
2024/03/01 00:56:06;;;;;;;;;;;;;;;8.48;73.53;99943.57;109346;1254;62451;-68
2024/03/01 00:58:33;;;;;;;;;;;;;;;8.50;73.50;99947.58;109232;1254;73396;-68
2024/03/01 01:01:01;;;;;;;;;;;;;;;8.57;72.92;99946.07;109251;1255;68547;-68
2024/03/01 01:03:28;;;;;;;;;;;;;;;8.40;73.54;99943.98;109238;1256;71434;-68
2024/03/01 01:05:56;;;;;;;;;;;;;;;8.43;73.43;99941.07;109178;1256;60978;-68
2024/03/01 01:08:24;;;;;;;;;;;;;;;8.40;73.38;99936.23;109286;1256;59851;-67
2024/03/01 01:10:51;;;;;;;;;;;;;;;8.38;73.52;99933.91;109198;1257;74731;-68
2024/03/01 01:13:19;;;;;;;;;;;;;;;8.31;73.70;99929.90;109180;1255;67336;-68
2024/03/01 01:15:46;;;;;;;;;;;;;;;8.25;73.98;99928.94;109275;1255;72907;-69
2024/03/01 01:18:16;;;;;;;;;;;;;;;8.26;74.00;99929.98;109255;1256;59234;-68
2024/03/01 01:20:45;;;;;;;;;;;;;;;8.33;73.51;99927.77;109205;1256;60129;-69
2024/03/01 01:23:13;;;;;;;;;;;;;;;8.40;73.27;99922.66;109285;1255;74883;-69
2024/03/01 01:25:43;;;;;;;;;;;;;;;8.53;72.24;99925.96;109480;1252;67638;-69
2024/03/01 01:28:10;;;;;;;;;;;;;;;8.52;72.03;99928.20;109529;1253;72725;-69
2024/03/01 01:30:38;;;;;;;;;;;;;;;8.41;72.49;99930.02;109504;1253;59658;-69
2024/03/01 01:33:06;;;;;;;;;;;;;;;8.28;73.05;99925.87;109499;1253;59830;-69
2024/03/01 01:35:33;;;;;;;;;;;;;;;8.12;73.56;99921.13;109541;1253;74277;-69
2024/03/01 01:38:01;;;;;;;;;;;;;;;8.06;73.91;99918.67;109597;1252;67389;-68
2024/03/01 01:40:30;;;;;;;;;;;;;;;8.02;74.01;99918.95;109489;1252;72851;-68
2024/03/01 01:43:02;;;;;;;;;;;;;;;7.82;74.90;99921.11;109553;1253;61012;-68
2024/03/01 01:45:32;;;;;;;;;;;;;;;7.83;75.09;99921.29;109297;1252;58999;-68
2024/03/01 01:48:02;;;;;;;;;;;;;;;7.84;75.02;99914.74;109355;1254;74859;-68
2024/03/01 01:50:30;;;;;;;;;;;;;;;7.91;74.54;99915.26;109528;1253;68504;-69
2024/03/01 01:52:57;;;;;;;;;;;;;;;7.87;74.47;99917.70;108829;1253;1002377;-69
2024/03/01 01:55:24;;;;;;;;;;;;;;;7.80;74.62;99916.20;109472;1253;60788;-66
2024/03/01 01:57:52;;;;;;;;;;;;;;;7.75;74.84;99918.58;109344;1253;58917;-68
2024/03/01 02:00:19;;;;;;;;;;;;;;;7.77;74.50;99917.06;109180;1256;73862;-68
2024/03/01 02:02:50;;;;;;;;;;;;;;;7.73;74.82;99916.38;109213;1256;66710;-68
2024/03/01 02:05:18;;;;;;;;;;;;;;;7.72;75.19;99917.20;109178;1255;72769;-68
2024/03/01 02:07:46;;;;;;;;;;;;;;;7.66;75.67;99917.98;109150;1256;59679;-67
2024/03/01 02:10:16;;;;;;;;;;;;;;;7.59;76.09;99917.91;109253;1255;59879;-67
2024/03/01 02:12:57;;;;;;;;;;;;;;;7.61;75.69;99916.73;109201;1256;73810;-68
2024/03/01 02:15:25;;;;;;;;;;;;;;;7.53;75.89;99920.57;109309;1256;68815;-68
2024/03/01 02:17:53;;;;;;;;;;;;;;;7.48;76.00;99919.70;109192;1256;72843;-68
2024/03/01 02:20:21;;;;;;;;;;;;;;;7.45;76.18;99916.20;109128;1255;60982;-68
2024/03/01 02:22:50;;;;;;;;;;;;;;;7.48;76.15;99917.60;109285;1255;59855;-68
2024/03/01 02:25:18;;;;;;;;;;;;;;;7.58;75.46;99912.59;109178;1256;73811;-68
2024/03/01 02:27:48;;;;;;;;;;;;;;;7.52;75.72;99913.77;109210;1256;68349;-68
2024/03/01 02:30:15;;;;;;;;;;;;;;;7.55;75.55;99914.23;109190;1256;71823;-69
2024/03/01 02:32:43;;;;;;;;;;;;;;;7.36;76.38;99906.81;109444;1254;59259;-68
2024/03/01 02:35:10;;;;;;;;;;;;;;;7.43;76.30;99903.31;109473;1253;59033;-67
2024/03/01 02:37:38;;;;;;;;;;;;;;;7.34;76.94;99896.86;109433;1253;74688;-68
2024/03/01 02:40:06;;;;;;;;;;;;;;;7.34;77.34;99897.09;109526;1253;67868;-68
2024/03/01 02:42:34;;;;;;;;;;;;;;;7.42;76.81;99892.98;109224;1253;72756;-68
2024/03/01 02:45:02;;;;;;;;;;;;;;;7.46;76.70;99889.77;109496;1253;60607;-69
2024/03/01 02:47:29;;;;;;;;;;;;;;;7.45;77.07;99888.14;109466;1253;59853;-69
2024/03/01 02:49:57;;;;;;;;;;;;;;;7.60;76.47;99888.77;109443;1253;74729;-69
2024/03/01 02:52:25;;;;;;;;;;;;;;;7.61;76.32;99892.32;109453;1253;68952;-69
2024/03/01 02:54:52;;;;;;;;;;;;;;;7.61;76.11;99899.15;109191;1253;71522;-69
2024/03/01 02:57:20;;;;;;;;;;;;;;;7.60;75.90;99893.29;109297;1253;59840;-69
2024/03/01 02:59:47;;;;;;;;;;;;;;;7.49;76.51;99894.66;109645;1252;59925;-68
2024/03/01 03:02:15;;;;;;;;;;;;;;;7.48;76.67;99890.52;109599;1254;74706;-70
2024/03/01 03:04:42;;;;;;;;;;;;;;;7.51;76.52;99887.84;109569;1253;69395;-69
2024/03/01 03:07:10;;;;;;;;;;;;;;;7.59;76.18;99891.98;109561;1252;72568;-69
2024/03/01 03:09:42;;;;;;;;;;;;;;;7.56;76.04;99890.54;109561;1252;60953;-69
2024/03/01 03:12:10;;;;;;;;;;;;;;;7.44;76.69;99890.65;109469;1252;59121;-69
2024/03/01 03:14:38;;;;;;;;;;;;;;;7.57;76.12;99892.95;109390;1252;73430;-68
2024/03/01 03:17:05;;;;;;;;;;;;;;;7.60;75.94;99892.29;109592;1253;68550;-69
2024/03/01 03:19:33;;;;;;;;;;;;;;;7.66;75.68;99891.98;109554;1253;72739;-69
2024/03/01 03:22:06;;;;;;;;;;;;;;;7.71;75.38;99885.54;109547;1252;60161;-70
2024/03/01 03:24:34;;;;;;;;;;;;;;;7.75;74.80;99880.09;109618;1253;59906;-70
2024/03/01 03:27:01;;;;;;;;;;;;;;;7.61;75.18;99873.73;109608;1253;74683;-69
2024/03/01 03:29:29;;;;;;;;;;;;;;;7.66;75.04;99874.50;109605;1252;67443;-69
2024/03/01 03:31:56;;;;;;;;;;;;;;;7.55;75.40;99875.63;109178;1253;72686;-69
2024/03/01 03:34:24;;;;;;;;;;;;;;;7.53;75.54;99876.45;109313;1252;61054;-69
2024/03/01 03:36:52;;;;;;;;;;;;;;;7.43;75.62;99872.27;109563;1253;59874;-69
2024/03/01 03:39:19;;;;;;;;;;;;;;;7.37;75.72;99868.60;109612;1252;73451;-70
2024/03/01 03:41:47;;;;;;;;;;;;;;;7.35;75.97;99870.46;109563;1253;68145;-69
2024/03/01 03:44:17;;;;;;;;;;;;;;;7.32;75.86;99870.74;109574;1253;71892;-68
2024/03/01 03:46:47;;;;;;;;;;;;;;;7.17;76.51;99875.85;109550;1253;59702;-69
2024/03/01 03:49:15;;;;;;;;;;;;;;;7.09;76.87;99872.09;109590;1253;59866;-69
2024/03/01 03:51:42;;;;;;;;;;;;;;;7.20;76.63;99867.38;109613;1253;73432;-69
2024/03/01 03:54:13;;;;;;;;;;;;;;;7.13;76.98;99866.42;109552;1252;66623;-68
2024/03/01 03:56:41;;;;;;;;;;;;;;;7.17;76.86;99869.08;109223;1253;72766;-69
2024/03/01 03:59:09;;;;;;;;;;;;;;;7.05;77.28;99870.98;109528;1253;59637;-68
2024/03/01 04:01:37;;;;;;;;;;;;;;;7.14;77.24;99871.08;109548;1252;59072;-69
2024/03/01 04:04:05;;;;;;;;;;;;;;;7.08;77.21;99874.39;109591;1253;74869;-68
2024/03/01 04:06:32;;;;;;;;;;;;;;;7.15;76.90;99877.48;109187;1252;67647;-68
2024/03/01 04:09:00;;;;;;;;;;;;;;;7.19;76.50;99875.30;109264;1253;71595;-67
2024/03/01 04:11:27;;;;;;;;;;;;;;;7.20;76.33;99872.66;109549;1253;59637;-68
2024/03/01 04:13:55;;;;;;;;;;;;;;;7.19;76.38;99874.06;109576;1253;59015;-68
2024/03/01 04:16:22;;;;;;;;;;;;;;;7.21;76.29;99873.52;109586;1253;73969;-68
2024/03/01 04:18:50;;;;;;;;;;;;;;;7.19;76.33;99879.42;109634;1253;68830;-68
2024/03/01 04:21:17;;;;;;;;;;;;;;;7.25;75.61;99880.75;109600;1254;70478;-68
2024/03/01 04:23:45;;;;;;;;;;;;;;;7.08;76.36;99879.78;109524;1252;59665;-67
2024/03/01 04:26:12;;;;;;;;;;;;;;;7.15;76.18;99881.30;109563;1252;58915;-68
2024/03/01 04:28:40;;;;;;;;;;;;;;;7.15;76.11;99878.05;109392;1252;73459;-68
2024/03/01 04:31:08;;;;;;;;;;;;;;;7.16;76.00;99879.86;109559;1253;68941;-68
2024/03/01 04:33:39;;;;;;;;;;;;;;;7.23;75.74;99879.94;109598;1252;72712;-68
2024/03/01 04:36:07;;;;;;;;;;;;;;;7.14;76.11;99884.45;109593;1253;60935;-65
2024/03/01 04:38:35;;;;;;;;;;;;;;;7.18;76.02;99884.02;109555;1252;58945;-66
2024/03/01 04:41:03;;;;;;;;;;;;;;;7.21;75.93;99886.50;109600;1253;74700;-69
2024/03/01 04:43:30;;;;;;;;;;;;;;;7.21;75.66;99888.30;109597;1252;67384;-68
2024/03/01 04:45:58;;;;;;;;;;;;;;;7.15;75.84;99894.44;109488;1253;71471;-69
2024/03/01 04:48:25;;;;;;;;;;;;;;;7.13;75.87;99899.31;109525;1253;61223;-68
2024/03/01 04:50:53;;;;;;;;;;;;;;;7.13;75.63;99897.71;109549;1253;59345;-69
2024/03/01 04:53:20;;;;;;;;;;;;;;;7.16;75.72;99900.31;109352;1253;73426;-69
2024/03/01 04:55:48;;;;;;;;;;;;;;;7.17;75.68;99899.14;109562;1253;68138;-69
2024/03/01 04:58:15;;;;;;;;;;;;;;;7.18;75.56;99901.92;109533;1253;72748;-69
2024/03/01 05:00:43;;;;;;;;;;;;;;;7.16;75.68;99904.23;109545;1254;60969;-68
2024/03/01 05:03:10;;;;;;;;;;;;;;;7.24;75.62;99905.61;109527;1253;58920;-67
2024/03/01 05:05:38;;;;;;;;;;;;;;;7.37;75.08;99905.86;109583;1253;74755;-68
2024/03/01 05:08:07;;;;;;;;;;;;;;;7.30;75.42;99909.02;109541;1253;67559;-69
2024/03/01 05:10:34;;;;;;;;;;;;;;;7.21;75.83;99906.91;109551;1252;71473;-69
2024/03/01 05:13:02;;;;;;;;;;;;;;;7.22;75.77;99907.42;109552;1254;60131;-69
2024/03/01 05:15:30;;;;;;;;;;;;;;;7.29;75.50;99905.79;109543;1254;58953;-69
2024/03/01 05:17:57;;;;;;;;;;;;;;;7.32;75.30;99903.05;109512;1252;74741;-71
2024/03/01 05:20:25;;;;;;;;;;;;;;;7.40;74.89;99906.85;109533;1253;68814;-71
2024/03/01 05:22:52;;;;;;;;;;;;;;;7.42;74.70;99908.44;109580;1252;71448;-71
2024/03/01 05:25:20;;;;;;;;;;;;;;;7.47;74.42;99911.81;109591;1254;59632;-70
2024/03/01 05:27:48;;;;;;;;;;;;;;;7.45;74.46;99915.17;109599;1252;58945;-70
2024/03/01 05:30:18;;;;;;;;;;;;;;;7.46;74.48;99921.57;109599;1252;74767;-71
2024/03/01 05:33:03;;;;;;;;;;;;;;;7.47;74.39;99918.42;109656;1254;68676;-70
2024/03/01 05:35:30;;;;;;;;;;;;;;;7.46;74.54;99921.29;109552;1253;72747;-70
2024/03/01 05:37:58;;;;;;;;;;;;;;;7.46;74.45;99925.19;109545;1254;59662;-70
2024/03/01 05:40:26;;;;;;;;;;;;;;;7.55;74.01;99927.59;109532;1252;60051;-68
2024/03/01 05:42:54;;;;;;;;;;;;;;;7.52;74.08;99928.02;109600;1252;73445;-69
2024/03/01 05:45:22;;;;;;;;;;;;;;;7.53;74.35;99931.30;109602;1252;68509;-70
2024/03/01 05:47:49;;;;;;;;;;;;;;;7.67;73.70;99935.94;109575;1252;71436;-71
2024/03/01 05:50:17;;;;;;;;;;;;;;;7.76;73.30;99938.95;109570;1254;59680;-72
2024/03/01 05:52:44;;;;;;;;;;;;;;;7.81;73.13;99940.16;109295;1252;59894;-70
2024/03/01 05:55:15;;;;;;;;;;;;;;;7.87;72.70;99936.62;109241;1253;74776;-69
2024/03/01 05:57:45;;;;;;;;;;;;;;;8.01;72.27;99942.20;109147;1253;68804;-69
2024/03/01 06:00:21;;;;;;;;;;;;;;;7.96;72.52;99947.61;109281;1253;71445;-70
2024/03/01 06:02:49;;;;;;;;;;;;;;;8.08;72.32;99949.75;109439;1257;60945;-69
2024/03/01 06:05:17;;;;;;;;;;;;;;;8.14;71.82;99955.04;109586;1252;59057;-67
2024/03/01 06:07:45;;;;;;;;;;;;;;;8.12;72.08;99951.50;109619;1253;75595;-70
2024/03/01 06:10:13;;;;;;;;;;;;;;;8.22;71.79;99958.52;109510;1254;70616;-71
2024/03/01 06:12:40;;;;;;;;;;;;;;;8.33;71.33;99961.30;109548;1253;73106;-70
2024/03/01 06:15:08;;;;;;;;;;;;;;;8.37;71.31;99965.36;109531;1254;59645;-70
2024/03/01 06:17:36;;;;;;;;;;;;;;;8.45;70.87;99963.01;109513;1252;59833;-69
2024/03/01 06:20:05;;;;;;;;;;;;;;;8.52;70.09;99958.20;109316;1253;74654;-69
2024/03/01 06:22:32;;;;;;;;;;;;;;;8.59;70.52;99959.83;109160;1252;68543;-70
2024/03/01 06:25:00;;;;;;;;;;;;;;;8.72;69.97;99958.20;109550;1253;73014;-69
2024/03/01 06:27:27;;;;;;;;;;;;;;;8.82;68.95;99964.23;109585;1253;60915;-68
2024/03/01 06:29:55;;;;;;;;;;;;;;;8.88;69.02;99967.30;109519;1253;58941;-70
2024/03/01 06:32:22;;;;;;;;;;;;;;;8.91;68.05;99964.34;109558;1253;74976;-68
2024/03/01 06:34:51;;;;;;;;;;;;;;;8.79;68.37;99967.64;109594;1252;70654;-69
2024/03/01 06:37:19;;;;;;;;;;;;;;;8.97;68.96;99968.86;109556;1252;71918;-70
2024/03/01 06:39:47;;;;;;;;;;;;;;;9.23;68.59;99967.28;109576;1254;61253;-68
2024/03/01 06:42:14;;;;;;;;;;;;;;;9.36;67.05;99964.40;109560;1253;58855;-70
2024/03/01 06:44:42;;;;;;;;;;;;;;;9.38;66.57;99967.66;109548;1253;73948;-69
2024/03/01 06:47:10;;;;;;;;;;;;;;;9.43;66.07;99964.39;109571;1253;67626;-69
2024/03/01 06:49:45;;;;;;;;;;;;;;;9.57;65.76;99967.42;109559;1253;73232;-69
2024/03/01 06:52:13;;;;;;;;;;;;;;;9.86;65.45;99974.80;109556;1253;60912;-69
2024/03/01 06:54:41;;;;;;;;;;;;;;;10.24;64.76;99977.77;109569;1253;59869;-69
2024/03/01 06:57:08;;;;;;;;;;;;;;;10.54;63.76;99982.48;109290;1256;74657;-69
2024/03/01 06:59:38;;;;;;;;;;;;;;;10.79;62.56;99985.36;108980;1257;69357;-69
2024/03/01 07:02:06;;;;;;;;;;;;;;;10.98;61.00;99989.64;109201;1256;71432;-69
2024/03/01 07:04:33;;;;;;;;;;;;;;;10.97;60.44;99987.14;108898;1256;59803;-69
2024/03/01 07:07:01;;;;;;;;;;;;;;;10.93;61.54;99985.01;109272;1255;59976;-69
2024/03/01 07:09:31;;;;;;;;;;;;;;;11.27;60.20;99982.16;109247;1257;73475;-69
2024/03/01 07:11:58;;;;;;;;;;;;;;;11.66;59.43;99983.15;109008;1259;69023;-70
2024/03/01 07:14:26;;;;;;;;;;;;;;;11.87;57.84;99979.06;108889;1258;72744;-69
2024/03/01 07:16:53;;;;;;;;;;;;;;;12.06;57.40;99980.19;109028;1257;59634;-69
2024/03/01 07:19:21;;;;;;;;;;;;;;;12.53;56.25;99981.52;109084;1257;60894;-70
2024/03/01 07:21:48;;;;;;;;;;;;;;;12.50;54.16;99984.93;109092;1259;74725;-70
2024/03/01 07:24:16;;;;;;;;;;;;;;;12.27;54.88;99981.64;109090;1258;67541;-69
2024/03/01 07:26:43;;;;;;;;;;;;;;;12.28;55.35;99978.48;109059;1257;72773;-70
2024/03/01 07:29:10;;;;;;;;;;;;;;;12.43;54.90;99983.58;109262;1255;60957;-70
2024/03/01 07:31:38;;;;;;;;;;;;;;;12.61;53.77;99989.00;109261;1257;59872;-70
2024/03/01 07:34:05;;;;;;;;;;;;;;;12.83;53.66;99995.49;109290;1254;74712;-70
2024/03/01 07:36:33;;;;;;;;;;;;;;;13.24;52.72;99992.98;109306;1254;68202;-70
2024/03/01 07:39:00;;;;;;;;;;;;;;;13.18;51.61;99996.16;109289;1255;71322;-69
2024/03/01 07:41:28;;;;;;;;;;;;;;;13.25;50.87;99989.84;109335;1255;59635;-69
2024/03/01 07:43:56;;;;;;;;;;;;;;;13.02;49.83;99991.96;109489;1254;61070;-68
2024/03/01 07:46:23;;;;;;;;;;;;;;;13.08;48.77;99993.67;109276;1254;74797;-69
2024/03/01 07:48:51;;;;;;;;;;;;;;;13.21;48.62;99989.55;109571;1253;68834;-70
2024/03/01 07:51:18;;;;;;;;;;;;;;;13.09;48.42;99988.88;109589;1253;71911;-70
2024/03/01 07:53:47;;;;;;;;;;;;;;;13.40;47.97;99992.27;109559;1256;61706;-71
2024/03/01 07:56:15;;;;;;;;;;;;;;;13.58;48.01;99991.83;109413;1253;58949;-71
2024/03/01 07:58:42;;;;;;;;;;;;;;;13.75;47.59;99994.43;109235;1253;73900;-70
2024/03/01 08:01:10;;;;;;;;;;;;;;;13.88;46.97;99995.34;109210;1261;68501;-70
2024/03/01 08:03:37;;;;;;;;;;;;;;;14.14;46.66;99996.45;109541;1254;72732;-70
2024/03/01 08:06:05;;;;;;;;;;;;;;;14.26;46.43;99996.15;109573;1253;60332;-70
2024/03/01 08:08:32;;;;;;;;;;;;;;;14.63;45.55;100000.11;109602;1253;59866;-70
2024/03/01 08:11:00;;;;;;;;;;;;;;;14.92;44.63;99991.08;109534;1253;73437;-70
2024/03/01 08:13:27;;;;;;;;;;;;;;;14.75;44.51;99987.48;109268;1252;69257;-70
2024/03/01 08:15:55;;;;;;;;;;;;;;;14.46;44.44;99986.79;109548;1254;71456;-70
2024/03/01 08:18:24;;;;;;;;;;;;;;;14.63;44.53;99990.16;109500;1254;60288;-69
2024/03/01 08:20:55;;;;;;;;;;;;;;;14.82;44.02;99990.98;109546;1252;59854;-70
2024/03/01 08:23:24;;;;;;;;;;;;;;;14.87;43.41;99988.49;109613;1253;74813;-70
2024/03/01 08:25:51;;;;;;;;;;;;;;;14.85;42.92;99985.30;109578;1253;68685;-70
2024/03/01 08:28:22;;;;;;;;;;;;;;;14.86;43.08;99981.46;109433;1253;166663;-70
2024/03/01 08:30:49;;;;;;;;;;;;;;;14.97;42.89;99968.60;109384;1253;60111;-70
2024/03/01 08:33:17;;;;;;;;;;;;;;;14.98;42.62;99964.10;109603;1254;58891;-70
2024/03/01 08:35:45;;;;;;;;;;;;;;;15.22;42.25;99966.05;109494;1254;74361;-70
2024/03/01 08:38:52;;;;;;;;;;;;;;;15.45;41.69;99963.61;109400;1254;67643;-70
2024/03/01 08:41:20;;;;;;;;;;;;;;;15.70;41.54;99968.39;108903;1261;72737;-69
2024/03/01 08:43:47;;;;;;;;;;;;;;;16.33;40.87;99980.13;108814;1262;58916;-71
2024/03/01 08:46:30;;;;;;;;;;;;;;;16.40;39.35;99978.18;108745;1262;59068;-71
2024/03/01 08:48:58;;;;;;;;;;;;;;;15.91;39.48;99975.02;108936;1260;73942;-71
2024/03/01 08:51:26;;;;;;;;;;;;;;;15.93;39.40;99976.04;109046;1261;67615;-71
2024/03/01 08:54:03;;;;;;;;;;;;;;;15.90;38.85;99971.71;108921;1261;71471;-68
2024/03/01 08:56:35;;;;;;;;;;;;;;;15.39;38.83;99966.33;108735;1262;60502;-71
2024/03/01 08:59:08;;;;;;;;;;;;;;;15.49;38.57;99973.39;108911;1260;59055;-71
2024/03/01 09:01:45;;;;;;;;;;;;;;;15.43;38.84;99983.41;108897;1260;73683;-70
2024/03/01 09:04:25;;;;;;;;;;;;;;;15.68;38.80;99979.32;108900;1261;67651;-71
2024/03/01 09:07:05;;;;;;;;;;;;;;;15.78;37.98;99976.48;108904;1261;72766;-70
2024/03/01 09:09:33;;;;;;;;;;;;;;;15.29;38.30;99973.30;108928;1260;59374;-70
2024/03/01 09:12:00;;;;;;;;;;;;;;;15.45;38.23;99968.70;109178;1253;59879;-70
2024/03/01 09:14:30;;;;;;;;;;;;;;;15.38;38.34;99968.34;109565;1254;75378;-69
2024/03/01 09:17:01;;;;;;;;;;;;;;;15.24;38.00;99962.85;109638;1254;67641;-70
2024/03/01 09:19:37;;;;;;;;;;;;;;;15.33;37.93;99970.20;109407;1254;72786;-69
2024/03/01 09:22:05;;;;;;;;;;;;;;;15.30;37.99;99969.77;109610;1254;59538;-69
2024/03/01 09:24:35;;;;;;;;;;;;;;;14.99;37.89;99967.46;109417;1254;58975;-70
2024/03/01 09:27:07;;;;;;;;;;;;;;;15.01;38.10;99973.79;109447;1253;73430;-70
2024/03/01 09:29:35;;;;;;;;;;;;;;;15.22;37.93;99982.71;109620;1253;70713;-70
2024/03/01 09:32:03;;;;;;;;;;;;;;;14.90;37.93;99979.89;109420;1254;72811;-70
2024/03/01 09:34:32;;;;;;;;;;;;;;;14.77;38.36;99977.58;109602;1253;58962;-70
2024/03/01 09:36:59;;;;;;;;;;;;;;;15.00;38.80;99974.48;109598;1256;59855;-70
2024/03/01 09:39:28;;;;;;;;;;;;;;;15.13;38.50;99978.52;109610;1254;73474;-68
2024/03/01 09:42:00;;;;;;;;;;;;;;;14.88;38.83;99973.26;109234;1254;68872;-68
2024/03/01 09:44:41;;;;;;;;;;;;;;;15.15;38.55;99977.38;109451;1254;72877;-71
2024/03/01 09:47:25;;;;;;;;;;;;;;;15.11;38.09;99975.42;109440;1255;60109;-70
2024/03/01 09:50:04;;;;;;;;;;;;;;;15.05;38.03;99980.52;109478;1254;59745;-70
2024/03/01 09:52:33;;;;;;;;;;;;;;;14.82;38.50;99982.39;109338;1253;74777;-69
2024/03/01 09:55:04;;;;;;;;;;;;;;;15.19;38.61;99979.90;109546;1254;67282;-69
2024/03/01 09:57:49;;;;;;;;;;;;;;;15.49;38.31;99974.95;109327;1253;72967;-71
2024/03/01 10:00:24;;;;;;;;;;;;;;;15.14;38.06;99964.83;109499;1254;60182;-71
2024/03/01 10:02:54;;;;;;;;;;;;;;;15.15;38.24;99963.32;109651;1252;59888;-69
2024/03/01 10:05:40;;;;;;;;;;;;;;;15.26;37.82;99957.83;109647;1253;74764;-70
2024/03/01 10:08:26;;;;;;;;;;;;;;;15.38;37.92;99960.39;109607;1254;67217;-71
2024/03/01 10:11:03;;;;;;;;;;;;;;;15.40;38.14;99956.52;109595;1254;72722;-69
2024/03/01 10:13:44;;;;;;;;;;;;;;;15.15;38.01;99947.80;109417;1259;58987;-70
2024/03/01 10:16:13;;;;;;;;;;;;;;;15.00;38.19;99947.13;109440;1253;58908;-70
2024/03/01 10:18:50;;;;;;;;;;;;;;;14.86;38.75;99942.45;109613;1254;74130;-69
2024/03/01 10:21:43;;;;;;;;;;;;;;;15.10;38.72;99946.17;109609;1254;67804;-70
2024/03/01 10:24:17;;;;;;;;;;;;;;;15.15;38.49;99946.22;108938;1260;72553;-70
2024/03/01 10:26:45;;;;;;;;;;;;;;;15.16;38.09;99943.84;108931;1260;60178;-72
2024/03/01 10:29:17;;;;;;;;;;;;;;;15.36;37.96;99944.48;108913;1260;59403;-71
2024/03/01 10:31:45;;;;;;;;;;;;;;;15.41;37.95;99937.33;108911;1261;74779;-72
2024/03/01 10:34:12;;;;;;;;;;;;;;;15.33;38.32;99935.96;108912;1261;67332;-71
2024/03/01 10:36:51;;;;;;;;;;;;;;;15.53;38.22;99937.73;108903;1261;72731;-70
2024/03/01 10:39:27;;;;;;;;;;;;;;;15.48;38.26;99934.43;108907;1260;60152;-70
2024/03/01 10:42:04;;;;;;;;;;;;;;;15.59;38.16;99932.13;108951;1260;58962;-70
2024/03/01 10:44:34;;;;;;;;;;;;;;;15.75;37.41;99927.09;108935;1262;73471;-70
2024/03/01 10:47:01;;;;;;;;;;;;;;;15.84;37.19;99927.14;108937;1261;67665;-69
2024/03/01 10:49:34;;;;;;;;;;;;;;;16.10;37.14;99926.88;108934;1260;72185;-71
2024/03/01 10:52:04;;;;;;;;;;;;;;;16.13;36.71;99923.51;108919;1260;60261;-71
2024/03/01 10:54:31;;;;;;;;;;;;;;;16.25;36.54;99919.73;108929;1265;59887;-71
2024/03/01 10:56:59;;;;;;;;;;;;;;;16.50;35.81;99924.69;108920;1260;73811;-71
2024/03/01 10:59:31;;;;;;;;;;;;;;;16.58;35.31;99921.73;108877;1260;68856;-72
2024/03/01 11:02:10;;;;;;;;;;;;;;;16.19;36.03;99907.86;109212;1253;71843;-71
2024/03/01 11:04:40;;;;;;;;;;;;;;;16.29;36.13;99901.34;109593;1254;59293;-71
2024/03/01 11:07:18;;;;;;;;;;;;;;;16.52;35.77;99904.61;109597;1253;59220;-71
2024/03/01 11:09:54;;;;;;;;;;;;;;;16.72;35.03;99915.66;109408;1254;74657;-70
2024/03/01 11:12:25;;;;;;;;;;;;;;;16.65;34.67;99913.45;109638;1252;68499;-71
2024/03/01 11:14:56;;;;;;;;;;;;;;;16.43;34.52;99902.80;109440;1252;71456;-71
2024/03/01 11:17:25;;;;;;;;;;;;;;;16.59;34.09;99899.73;109608;1253;60097;-70
2024/03/01 11:19:55;;;;;;;;;;;;;;;16.71;34.30;99901.52;109470;1254;58983;-71
2024/03/01 11:22:26;;;;;;;;;;;;;;;16.72;33.83;99898.70;109445;1254;74727;-71
2024/03/01 11:25:05;;;;;;;;;;;;;;;16.61;33.78;99893.75;109594;1253;68518;-71
2024/03/01 11:27:35;;;;;;;;;;;;;;;16.57;33.56;99888.20;109569;1254;71502;-71
2024/03/01 11:30:04;;;;;;;;;;;;;;;16.51;33.06;99883.70;109597;1254;58898;-71
2024/03/01 11:32:32;;;;;;;;;;;;;;;16.35;33.12;99885.10;109629;1254;59848;-71
2024/03/01 11:35:03;;;;;;;;;;;;;;;16.38;32.96;99889.30;109475;1253;74767;-71
2024/03/01 11:37:38;;;;;;;;;;;;;;;16.35;33.09;99889.87;109608;1253;67759;-71
2024/03/01 11:40:07;;;;;;;;;;;;;;;16.49;33.13;99888.05;109582;1253;72952;-72
2024/03/01 11:42:35;;;;;;;;;;;;;;;16.37;32.97;99886.48;109198;1254;59097;-72
2024/03/01 11:45:05;;;;;;;;;;;;;;;16.05;32.90;99882.35;109616;1253;59572;-72
2024/03/01 11:47:41;;;;;;;;;;;;;;;16.15;32.46;99891.15;109545;1254;74728;-71
2024/03/01 11:50:09;;;;;;;;;;;;;;;16.17;32.32;99888.70;109584;1254;68811;-72
2024/03/01 11:52:55;;;;;;;;;;;;;;;16.14;32.47;99879.52;109663;1252;72523;-70
2024/03/01 11:55:29;;;;;;;;;;;;;;;16.28;32.19;99879.02;109600;1254;60330;-70
2024/03/01 11:58:12;;;;;;;;;;;;;;;16.29;32.18;99874.63;109138;1257;59903;-70
2024/03/01 12:01:10;;;;;;;;;;;;;;;16.15;32.16;99869.17;109176;1255;74808;-70
2024/03/01 12:03:41;;;;;;;;;;;;;;;16.13;32.30;99864.52;108770;1263;68853;-70
2024/03/01 12:06:12;;;;;;;;;;;;;;;16.12;32.53;99854.84;108662;1263;72769;-70
2024/03/01 12:08:55;;;;;;;;;;;;;;;15.98;33.32;99855.00;108715;1263;59053;-70
2024/03/01 12:11:24;;;;;;;;;;;;;;;16.13;33.30;99857.92;108760;1263;59066;-70
2024/03/01 12:14:01;;;;;;;;;;;;;;;16.07;33.19;99858.83;108743;1263;73754;-70
2024/03/01 12:16:51;;;;;;;;;;;;;;;15.82;33.40;99860.58;108760;1264;68843;-69
2024/03/01 12:19:31;;;;;;;;;;;;;;;16.00;32.83;99860.63;107525;1270;1002354;-70
2024/03/01 12:22:18;;;;;;;;;;;;;;;16.02;32.43;99850.81;108269;1270;59333;-71
2024/03/01 12:24:46;;;;;;;;;;;;;;;15.80;32.40;99843.21;108285;1270;59875;-70
2024/03/01 12:27:20;;;;;;;;;;;;;;;15.74;32.38;99835.62;108295;1270;74877;-70
2024/03/01 12:29:53;;;;;;;;;;;;;;;15.42;32.63;99832.81;108344;1270;67274;-70
2024/03/01 12:32:22;;;;;;;;;;;;;;;15.30;32.67;99840.13;108367;1270;71851;-70
2024/03/01 12:34:52;;;;;;;;;;;;;;;15.53;32.67;99838.92;108327;1270;60262;-70
2024/03/01 12:37:25;;;;;;;;;;;;;;;15.49;32.99;99838.89;108355;1270;59875;-70
2024/03/01 12:40:02;;;;;;;;;;;;;;;15.61;32.89;99836.38;108513;1260;74966;-70
2024/03/01 12:42:36;;;;;;;;;;;;;;;15.36;33.44;99838.23;108809;1260;67361;-69
2024/03/01 12:45:08;;;;;;;;;;;;;;;15.45;33.44;99843.29;108917;1260;71471;-69
2024/03/01 12:47:42;;;;;;;;;;;;;;;15.69;33.14;99846.31;108888;1260;59028;-69
2024/03/01 12:50:12;;;;;;;;;;;;;;;15.84;32.73;99851.52;108924;1260;59039;-70
2024/03/01 12:52:55;;;;;;;;;;;;;;;15.87;33.19;99842.73;108891;1260;74796;-69
2024/03/01 12:55:23;;;;;;;;;;;;;;;15.92;33.76;99843.14;108961;1259;71353;-70
2024/03/01 12:58:04;;;;;;;;;;;;;;;16.04;33.78;99847.36;109398;1254;72759;-70